sensor_id;sensor_type;location;lat;lon;timestamp;P1;durP1;ratioP1;P2;durP2;ratioP2
49109;SDS011;34921;52.320;16.142;2023-01-16T00:00:52;8.45;;;3.00;;
49109;SDS011;34921;52.320;16.142;2023-01-16T00:03:30;5.87;;;2.92;;
49109;SDS011;34921;52.320;16.142;2023-01-16T00:05:58;9.53;;;3.10;;
49109;SDS011;34921;52.320;16.142;2023-01-16T00:08:26;6.70;;;2.70;;
49109;SDS011;34921;52.320;16.142;2023-01-16T00:10:53;6.20;;;2.70;;
49109;SDS011;34921;52.320;16.142;2023-01-16T00:13:21;7.65;;;2.90;;
49109;SDS011;34921;52.320;16.142;2023-01-16T00:15:49;9.23;;;4.00;;
49109;SDS011;34921;52.320;16.142;2023-01-16T00:18:17;7.33;;;2.60;;
49109;SDS011;34921;52.320;16.142;2023-01-16T00:20:46;7.25;;;2.75;;
49109;SDS011;34921;52.320;16.142;2023-01-16T00:23:14;6.23;;;2.50;;
49109;SDS011;34921;52.320;16.142;2023-01-16T00:25:42;5.62;;;2.72;;
49109;SDS011;34921;52.320;16.142;2023-01-16T00:28:11;7.47;;;3.17;;
49109;SDS011;34921;52.320;16.142;2023-01-16T00:30:40;6.73;;;3.13;;
49109;SDS011;34921;52.320;16.142;2023-01-16T00:33:08;5.72;;;2.22;;
49109;SDS011;34921;52.320;16.142;2023-01-16T00:35:36;5.33;;;1.90;;
49109;SDS011;34921;52.320;16.142;2023-01-16T00:38:03;9.23;;;3.35;;
49109;SDS011;34921;52.320;16.142;2023-01-16T00:40:31;8.45;;;3.80;;
49109;SDS011;34921;52.320;16.142;2023-01-16T00:42:59;8.15;;;2.85;;
49109;SDS011;34921;52.320;16.142;2023-01-16T00:45:27;5.08;;;2.65;;
49109;SDS011;34921;52.320;16.142;2023-01-16T00:47:55;8.15;;;3.70;;
49109;SDS011;34921;52.320;16.142;2023-01-16T00:50:23;7.80;;;3.90;;
49109;SDS011;34921;52.320;16.142;2023-01-16T00:52:50;6.70;;;3.52;;
49109;SDS011;34921;52.320;16.142;2023-01-16T00:55:18;9.20;;;3.83;;
49109;SDS011;34921;52.320;16.142;2023-01-16T00:57:46;4.80;;;2.60;;
49109;SDS011;34921;52.320;16.142;2023-01-16T01:00:14;6.08;;;2.47;;
49109;SDS011;34921;52.320;16.142;2023-01-16T01:02:42;5.42;;;2.20;;
49109;SDS011;34921;52.320;16.142;2023-01-16T01:05:09;7.47;;;4.58;;
49109;SDS011;34921;52.320;16.142;2023-01-16T01:07:37;7.40;;;4.28;;
49109;SDS011;34921;52.320;16.142;2023-01-16T01:10:05;12.58;;;6.58;;
49109;SDS011;34921;52.320;16.142;2023-01-16T01:12:33;8.60;;;3.43;;
49109;SDS011;34921;52.320;16.142;2023-01-16T01:15:01;8.95;;;4.20;;
49109;SDS011;34921;52.320;16.142;2023-01-16T01:17:28;7.40;;;3.52;;
49109;SDS011;34921;52.320;16.142;2023-01-16T01:19:56;7.80;;;3.20;;
49109;SDS011;34921;52.320;16.142;2023-01-16T01:22:24;7.17;;;2.80;;
49109;SDS011;34921;52.320;16.142;2023-01-16T01:24:53;11.12;;;3.60;;
49109;SDS011;34921;52.320;16.142;2023-01-16T01:27:21;6.70;;;2.47;;
49109;SDS011;34921;52.320;16.142;2023-01-16T01:29:49;4.72;;;2.10;;
49109;SDS011;34921;52.320;16.142;2023-01-16T01:32:16;4.85;;;2.12;;
49109;SDS011;34921;52.320;16.142;2023-01-16T01:34:44;5.08;;;2.02;;
49109;SDS011;34921;52.320;16.142;2023-01-16T01:37:12;5.60;;;2.47;;
49109;SDS011;34921;52.320;16.142;2023-01-16T01:39:39;3.95;;;2.25;;
49109;SDS011;34921;52.320;16.142;2023-01-16T01:42:09;7.53;;;4.17;;
49109;SDS011;34921;52.320;16.142;2023-01-16T01:45:05;15.60;;;9.00;;
49109;SDS011;34921;52.320;16.142;2023-01-16T01:47:34;10.63;;;5.12;;
49109;SDS011;34921;52.320;16.142;2023-01-16T01:50:04;10.38;;;3.67;;
49109;SDS011;34921;52.320;16.142;2023-01-16T01:52:37;6.53;;;3.35;;
49109;SDS011;34921;52.320;16.142;2023-01-16T01:55:05;5.33;;;2.02;;
49109;SDS011;34921;52.320;16.142;2023-01-16T01:57:40;3.40;;;1.70;;
49109;SDS011;34921;52.320;16.142;2023-01-16T02:00:10;3.92;;;1.80;;
49109;SDS011;34921;52.320;16.142;2023-01-16T02:02:39;8.08;;;2.00;;
49109;SDS011;34921;52.320;16.142;2023-01-16T02:05:10;5.22;;;1.87;;
49109;SDS011;34921;52.320;16.142;2023-01-16T02:07:40;6.53;;;1.70;;
49109;SDS011;34921;52.320;16.142;2023-01-16T02:10:13;4.03;;;1.50;;
49109;SDS011;34921;52.320;16.142;2023-01-16T02:12:43;5.95;;;2.15;;
49109;SDS011;34921;52.320;16.142;2023-01-16T02:15:10;4.70;;;1.95;;
49109;SDS011;34921;52.320;16.142;2023-01-16T02:17:45;5.42;;;1.90;;
49109;SDS011;34921;52.320;16.142;2023-01-16T02:20:32;6.65;;;3.12;;
49109;SDS011;34921;52.320;16.142;2023-01-16T02:34:37;3.90;;;1.82;;
49109;SDS011;34921;52.320;16.142;2023-01-16T02:42:44;5.10;;;1.85;;
49109;SDS011;34921;52.320;16.142;2023-01-16T02:45:17;4.70;;;1.90;;
49109;SDS011;34921;52.320;16.142;2023-01-16T02:47:48;5.25;;;1.70;;
49109;SDS011;34921;52.320;16.142;2023-01-16T02:50:26;5.17;;;2.13;;
49109;SDS011;34921;52.320;16.142;2023-01-16T02:55:31;3.95;;;2.00;;
49109;SDS011;34921;52.320;16.142;2023-01-16T02:58:00;5.53;;;2.17;;
49109;SDS011;34921;52.320;16.142;2023-01-16T03:00:28;5.28;;;2.67;;
49109;SDS011;34921;52.320;16.142;2023-01-16T03:02:57;5.22;;;2.55;;
49109;SDS011;34921;52.320;16.142;2023-01-16T03:05:26;6.40;;;2.33;;
49109;SDS011;34921;52.320;16.142;2023-01-16T03:13:03;3.93;;;1.63;;
49109;SDS011;34921;52.320;16.142;2023-01-16T03:21:03;4.17;;;1.50;;
49109;SDS011;34921;52.320;16.142;2023-01-16T03:26:11;5.17;;;1.90;;
49109;SDS011;34921;52.320;16.142;2023-01-16T03:32:00;6.03;;;2.10;;
49109;SDS011;34921;52.320;16.142;2023-01-16T03:34:27;4.97;;;1.90;;
49109;SDS011;34921;52.320;16.142;2023-01-16T03:36:59;5.45;;;2.20;;
49109;SDS011;34921;52.320;16.142;2023-01-16T03:39:30;4.95;;;1.75;;
49109;SDS011;34921;52.320;16.142;2023-01-16T03:42:01;6.53;;;1.70;;
49109;SDS011;34921;52.320;16.142;2023-01-16T03:44:32;4.85;;;1.47;;
49109;SDS011;34921;52.320;16.142;2023-01-16T03:47:02;4.30;;;1.30;;
49109;SDS011;34921;52.320;16.142;2023-01-16T03:49:37;6.22;;;1.80;;
49109;SDS011;34921;52.320;16.142;2023-01-16T03:52:06;5.27;;;1.63;;
49109;SDS011;34921;52.320;16.142;2023-01-16T03:54:42;5.60;;;1.90;;
49109;SDS011;34921;52.320;16.142;2023-01-16T03:57:22;4.92;;;1.85;;
49109;SDS011;34921;52.320;16.142;2023-01-16T03:59:52;5.08;;;2.30;;
49109;SDS011;34921;52.320;16.142;2023-01-16T04:02:28;6.40;;;2.45;;
49109;SDS011;34921;52.320;16.142;2023-01-16T04:05:09;9.98;;;2.62;;
49109;SDS011;34921;52.320;16.142;2023-01-16T04:10:09;11.15;;;3.10;;
49109;SDS011;34921;52.320;16.142;2023-01-16T04:15:06;11.70;;;3.50;;
49109;SDS011;34921;52.320;16.142;2023-01-16T04:17:37;12.17;;;3.57;;
49109;SDS011;34921;52.320;16.142;2023-01-16T04:20:07;18.23;;;6.40;;
49109;SDS011;34921;52.320;16.142;2023-01-16T04:22:35;11.48;;;3.80;;
49109;SDS011;34921;52.320;16.142;2023-01-16T04:25:07;10.72;;;3.90;;
49109;SDS011;34921;52.320;16.142;2023-01-16T04:27:35;12.53;;;3.92;;
49109;SDS011;34921;52.320;16.142;2023-01-16T04:30:03;7.47;;;3.30;;
49109;SDS011;34921;52.320;16.142;2023-01-16T04:32:31;9.55;;;3.47;;
49109;SDS011;34921;52.320;16.142;2023-01-16T04:34:59;7.00;;;2.30;;
49109;SDS011;34921;52.320;16.142;2023-01-16T04:37:27;5.20;;;2.17;;
49109;SDS011;34921;52.320;16.142;2023-01-16T04:39:54;5.25;;;2.47;;
49109;SDS011;34921;52.320;16.142;2023-01-16T04:42:22;5.83;;;2.22;;
49109;SDS011;34921;52.320;16.142;2023-01-16T04:44:50;6.22;;;2.40;;
49109;SDS011;34921;52.320;16.142;2023-01-16T04:47:18;6.17;;;2.42;;
49109;SDS011;34921;52.320;16.142;2023-01-16T04:49:45;4.60;;;2.40;;
49109;SDS011;34921;52.320;16.142;2023-01-16T04:52:13;5.13;;;2.30;;
49109;SDS011;34921;52.320;16.142;2023-01-16T04:54:41;5.50;;;2.60;;
49109;SDS011;34921;52.320;16.142;2023-01-16T04:57:09;7.33;;;2.47;;
49109;SDS011;34921;52.320;16.142;2023-01-16T04:59:37;8.15;;;3.02;;
49109;SDS011;34921;52.320;16.142;2023-01-16T05:02:04;7.20;;;2.40;;
49109;SDS011;34921;52.320;16.142;2023-01-16T05:04:32;6.43;;;2.63;;
49109;SDS011;34921;52.320;16.142;2023-01-16T05:07:00;7.90;;;3.60;;
49109;SDS011;34921;52.320;16.142;2023-01-16T05:09:27;7.15;;;2.85;;
49109;SDS011;34921;52.320;16.142;2023-01-16T05:11:55;5.85;;;2.55;;
49109;SDS011;34921;52.320;16.142;2023-01-16T05:14:23;8.03;;;2.70;;
49109;SDS011;34921;52.320;16.142;2023-01-16T05:16:51;7.35;;;2.72;;
49109;SDS011;34921;52.320;16.142;2023-01-16T05:19:18;11.27;;;4.07;;
49109;SDS011;34921;52.320;16.142;2023-01-16T05:21:46;18.15;;;5.42;;
49109;SDS011;34921;52.320;16.142;2023-01-16T05:24:14;11.27;;;3.43;;
49109;SDS011;34921;52.320;16.142;2023-01-16T05:26:42;25.80;;;6.80;;
49109;SDS011;34921;52.320;16.142;2023-01-16T05:29:09;7.17;;;2.40;;
49109;SDS011;34921;52.320;16.142;2023-01-16T05:31:37;10.07;;;3.97;;
49109;SDS011;34921;52.320;16.142;2023-01-16T05:34:05;19.45;;;6.40;;
49109;SDS011;34921;52.320;16.142;2023-01-16T05:36:33;19.77;;;5.80;;
49109;SDS011;34921;52.320;16.142;2023-01-16T05:39:00;13.22;;;4.15;;
49109;SDS011;34921;52.320;16.142;2023-01-16T05:41:28;9.30;;;3.40;;
49109;SDS011;34921;52.320;16.142;2023-01-16T05:43:56;11.73;;;3.17;;
49109;SDS011;34921;52.320;16.142;2023-01-16T05:46:24;12.33;;;4.12;;
49109;SDS011;34921;52.320;16.142;2023-01-16T05:48:52;10.68;;;3.05;;
49109;SDS011;34921;52.320;16.142;2023-01-16T05:51:20;12.13;;;3.45;;
49109;SDS011;34921;52.320;16.142;2023-01-16T05:53:51;16.20;;;4.70;;
49109;SDS011;34921;52.320;16.142;2023-01-16T05:56:20;11.50;;;3.95;;
49109;SDS011;34921;52.320;16.142;2023-01-16T05:58:48;12.18;;;4.28;;
49109;SDS011;34921;52.320;16.142;2023-01-16T06:01:16;9.63;;;3.47;;
49109;SDS011;34921;52.320;16.142;2023-01-16T06:03:44;10.95;;;3.30;;
49109;SDS011;34921;52.320;16.142;2023-01-16T06:06:11;9.28;;;3.40;;
49109;SDS011;34921;52.320;16.142;2023-01-16T06:08:39;8.88;;;3.77;;
49109;SDS011;34921;52.320;16.142;2023-01-16T06:11:07;11.68;;;5.58;;
49109;SDS011;34921;52.320;16.142;2023-01-16T06:13:35;7.73;;;3.33;;
49109;SDS011;34921;52.320;16.142;2023-01-16T06:16:02;7.53;;;3.60;;
49109;SDS011;34921;52.320;16.142;2023-01-16T06:18:30;8.18;;;3.90;;
49109;SDS011;34921;52.320;16.142;2023-01-16T06:20:58;8.23;;;3.90;;
49109;SDS011;34921;52.320;16.142;2023-01-16T06:23:26;9.15;;;4.12;;
49109;SDS011;34921;52.320;16.142;2023-01-16T06:25:53;10.93;;;4.03;;
49109;SDS011;34921;52.320;16.142;2023-01-16T06:28:21;13.70;;;4.92;;
49109;SDS011;34921;52.320;16.142;2023-01-16T06:30:52;18.27;;;6.42;;
49109;SDS011;34921;52.320;16.142;2023-01-16T06:33:20;13.78;;;5.17;;
49109;SDS011;34921;52.320;16.142;2023-01-16T06:35:47;14.77;;;4.90;;
49109;SDS011;34921;52.320;16.142;2023-01-16T06:38:16;15.88;;;6.80;;
49109;SDS011;34921;52.320;16.142;2023-01-16T06:40:44;13.20;;;5.47;;
49109;SDS011;34921;52.320;16.142;2023-01-16T06:43:12;14.97;;;5.53;;
49109;SDS011;34921;52.320;16.142;2023-01-16T06:45:40;11.12;;;4.83;;
49109;SDS011;34921;52.320;16.142;2023-01-16T06:48:07;12.98;;;4.47;;
49109;SDS011;34921;52.320;16.142;2023-01-16T06:50:35;9.95;;;3.90;;
49109;SDS011;34921;52.320;16.142;2023-01-16T06:53:03;12.37;;;5.03;;
49109;SDS011;34921;52.320;16.142;2023-01-16T06:55:31;10.60;;;4.10;;
49109;SDS011;34921;52.320;16.142;2023-01-16T06:57:58;16.40;;;6.50;;
49109;SDS011;34921;52.320;16.142;2023-01-16T07:00:26;24.75;;;8.95;;
49109;SDS011;34921;52.320;16.142;2023-01-16T07:02:54;12.93;;;5.25;;
49109;SDS011;34921;52.320;16.142;2023-01-16T07:05:23;28.40;;;11.40;;
49109;SDS011;34921;52.320;16.142;2023-01-16T07:07:51;25.90;;;11.60;;
49109;SDS011;34921;52.320;16.142;2023-01-16T07:10:19;40.40;;;22.90;;
49109;SDS011;34921;52.320;16.142;2023-01-16T07:12:50;29.70;;;16.30;;
49109;SDS011;34921;52.320;16.142;2023-01-16T07:15:19;18.00;;;9.25;;
49109;SDS011;34921;52.320;16.142;2023-01-16T07:18:08;27.10;;;10.40;;
49109;SDS011;34921;52.320;16.142;2023-01-16T07:20:58;14.15;;;7.10;;
49109;SDS011;34921;52.320;16.142;2023-01-16T07:23:49;14.63;;;6.30;;
49109;SDS011;34921;52.320;16.142;2023-01-16T07:26:18;15.30;;;6.25;;
49109;SDS011;34921;52.320;16.142;2023-01-16T07:28:47;16.90;;;7.10;;
49109;SDS011;34921;52.320;16.142;2023-01-16T07:31:15;19.20;;;8.93;;
49109;SDS011;34921;52.320;16.142;2023-01-16T07:33:43;26.37;;;11.83;;
49109;SDS011;34921;52.320;16.142;2023-01-16T07:36:11;22.45;;;10.48;;
49109;SDS011;34921;52.320;16.142;2023-01-16T07:38:39;34.20;;;13.58;;
49109;SDS011;34921;52.320;16.142;2023-01-16T07:41:07;45.28;;;16.10;;
49109;SDS011;34921;52.320;16.142;2023-01-16T07:43:35;19.97;;;9.10;;
49109;SDS011;34921;52.320;16.142;2023-01-16T07:46:03;39.30;;;17.47;;
49109;SDS011;34921;52.320;16.142;2023-01-16T07:48:30;71.47;;;28.75;;
49109;SDS011;34921;52.320;16.142;2023-01-16T07:50:58;114.88;;;47.48;;
49109;SDS011;34921;52.320;16.142;2023-01-16T07:53:27;86.20;;;33.23;;
49109;SDS011;34921;52.320;16.142;2023-01-16T07:55:56;23.52;;;9.68;;
49109;SDS011;34921;52.320;16.142;2023-01-16T07:58:25;39.78;;;12.70;;
49109;SDS011;34921;52.320;16.142;2023-01-16T08:00:52;36.98;;;12.47;;
49109;SDS011;34921;52.320;16.142;2023-01-16T08:03:21;21.97;;;8.73;;
49109;SDS011;34921;52.320;16.142;2023-01-16T08:05:49;25.27;;;9.73;;
49109;SDS011;34921;52.320;16.142;2023-01-16T08:08:22;25.85;;;10.93;;
49109;SDS011;34921;52.320;16.142;2023-01-16T08:10:56;15.80;;;7.40;;
49109;SDS011;34921;52.320;16.142;2023-01-16T08:13:24;14.70;;;6.60;;
49109;SDS011;34921;52.320;16.142;2023-01-16T08:15:52;20.85;;;8.35;;
49109;SDS011;34921;52.320;16.142;2023-01-16T08:18:20;18.30;;;8.53;;
49109;SDS011;34921;52.320;16.142;2023-01-16T08:20:48;8.80;;;4.33;;
49109;SDS011;34921;52.320;16.142;2023-01-16T08:23:16;17.45;;;6.92;;
49109;SDS011;34921;52.320;16.142;2023-01-16T08:25:44;13.25;;;5.28;;
49109;SDS011;34921;52.320;16.142;2023-01-16T08:28:11;10.78;;;5.08;;
49109;SDS011;34921;52.320;16.142;2023-01-16T08:30:39;9.03;;;5.08;;
49109;SDS011;34921;52.320;16.142;2023-01-16T08:33:07;9.80;;;5.10;;
49109;SDS011;34921;52.320;16.142;2023-01-16T08:35:35;9.13;;;4.97;;
49109;SDS011;34921;52.320;16.142;2023-01-16T08:38:03;12.45;;;4.75;;
49109;SDS011;34921;52.320;16.142;2023-01-16T08:40:31;12.20;;;5.22;;
49109;SDS011;34921;52.320;16.142;2023-01-16T08:42:58;12.80;;;5.25;;
49109;SDS011;34921;52.320;16.142;2023-01-16T08:45:45;11.95;;;5.85;;
49109;SDS011;34921;52.320;16.142;2023-01-16T08:48:31;16.95;;;8.35;;
49109;SDS011;34921;52.320;16.142;2023-01-16T08:51:19;18.73;;;7.83;;
49109;SDS011;34921;52.320;16.142;2023-01-16T08:53:51;16.65;;;7.92;;
49109;SDS011;34921;52.320;16.142;2023-01-16T08:56:20;20.17;;;6.80;;
49109;SDS011;34921;52.320;16.142;2023-01-16T08:58:48;15.28;;;6.10;;
49109;SDS011;34921;52.320;16.142;2023-01-16T09:01:16;11.43;;;4.92;;
49109;SDS011;34921;52.320;16.142;2023-01-16T09:03:44;12.25;;;5.60;;
49109;SDS011;34921;52.320;16.142;2023-01-16T09:06:12;11.12;;;4.80;;
49109;SDS011;34921;52.320;16.142;2023-01-16T09:08:40;9.63;;;4.80;;
49109;SDS011;34921;52.320;16.142;2023-01-16T09:11:07;16.43;;;7.10;;
49109;SDS011;34921;52.320;16.142;2023-01-16T09:13:54;19.52;;;10.65;;
49109;SDS011;34921;52.320;16.142;2023-01-16T09:16:27;11.03;;;5.97;;
49109;SDS011;34921;52.320;16.142;2023-01-16T09:18:55;10.80;;;5.30;;
49109;SDS011;34921;52.320;16.142;2023-01-16T09:21:23;9.75;;;5.47;;
49109;SDS011;34921;52.320;16.142;2023-01-16T09:23:53;18.12;;;9.10;;
49109;SDS011;34921;52.320;16.142;2023-01-16T09:26:21;19.17;;;8.55;;
49109;SDS011;34921;52.320;16.142;2023-01-16T09:28:49;32.30;;;17.17;;
49109;SDS011;34921;52.320;16.142;2023-01-16T09:31:17;33.95;;;20.00;;
49109;SDS011;34921;52.320;16.142;2023-01-16T09:33:46;16.32;;;7.45;;
49109;SDS011;34921;52.320;16.142;2023-01-16T09:36:18;12.07;;;5.20;;
49109;SDS011;34921;52.320;16.142;2023-01-16T09:38:46;13.03;;;5.60;;
49109;SDS011;34921;52.320;16.142;2023-01-16T09:41:15;13.55;;;5.85;;
49109;SDS011;34921;52.320;16.142;2023-01-16T09:44:03;11.12;;;4.70;;
49109;SDS011;34921;52.320;16.142;2023-01-16T09:46:33;27.02;;;11.73;;
49109;SDS011;34921;52.320;16.142;2023-01-16T09:49:05;32.80;;;12.65;;
49109;SDS011;34921;52.320;16.142;2023-01-16T09:51:35;33.92;;;13.55;;
49109;SDS011;34921;52.320;16.142;2023-01-16T09:54:05;11.08;;;5.50;;
49109;SDS011;34921;52.320;16.142;2023-01-16T09:56:56;18.02;;;7.40;;
49109;SDS011;34921;52.320;16.142;2023-01-16T09:59:51;21.80;;;10.27;;
49109;SDS011;34921;52.320;16.142;2023-01-16T10:02:24;58.28;;;27.60;;
49109;SDS011;34921;52.320;16.142;2023-01-16T10:04:54;12.45;;;5.45;;
49109;SDS011;34921;52.320;16.142;2023-01-16T10:12:27;22.05;;;7.83;;
49109;SDS011;34921;52.320;16.142;2023-01-16T10:23:21;26.55;;;8.68;;
49109;SDS011;34921;52.320;16.142;2023-01-16T10:28:50;13.07;;;6.30;;
49109;SDS011;34921;52.320;16.142;2023-01-16T10:33:50;23.87;;;7.73;;
49109;SDS011;34921;52.320;16.142;2023-01-16T10:36:25;20.95;;;7.65;;
49109;SDS011;34921;52.320;16.142;2023-01-16T10:44:32;17.77;;;5.43;;
49109;SDS011;34921;52.320;16.142;2023-01-16T10:47:22;20.72;;;8.03;;
49109;SDS011;34921;52.320;16.142;2023-01-16T10:50:09;52.48;;;17.60;;
49109;SDS011;34921;52.320;16.142;2023-01-16T10:52:37;69.80;;;21.15;;
49109;SDS011;34921;52.320;16.142;2023-01-16T10:55:05;33.90;;;10.35;;
49109;SDS011;34921;52.320;16.142;2023-01-16T10:57:34;17.80;;;6.60;;
49109;SDS011;34921;52.320;16.142;2023-01-16T11:00:14;12.15;;;5.20;;
49109;SDS011;34921;52.320;16.142;2023-01-16T11:02:45;10.15;;;4.70;;
49109;SDS011;34921;52.320;16.142;2023-01-16T11:05:27;9.85;;;4.33;;
49109;SDS011;34921;52.320;16.142;2023-01-16T11:08:01;16.55;;;8.03;;
49109;SDS011;34921;52.320;16.142;2023-01-16T11:10:32;9.75;;;4.40;;
49109;SDS011;34921;52.320;16.142;2023-01-16T11:12:59;11.08;;;4.22;;
49109;SDS011;34921;52.320;16.142;2023-01-16T11:15:59;14.77;;;5.13;;
49109;SDS011;34921;52.320;16.142;2023-01-16T11:18:53;8.70;;;3.60;;
49109;SDS011;34921;52.320;16.142;2023-01-16T11:23:58;10.20;;;4.37;;
49109;SDS011;34921;52.320;16.142;2023-01-16T11:26:26;16.57;;;7.12;;
49109;SDS011;34921;52.320;16.142;2023-01-16T11:28:55;11.05;;;4.35;;
49109;SDS011;34921;52.320;16.142;2023-01-16T11:31:24;11.38;;;3.90;;
49109;SDS011;34921;52.320;16.142;2023-01-16T11:33:54;9.63;;;3.65;;
49109;SDS011;34921;52.320;16.142;2023-01-16T11:36:31;11.40;;;5.72;;
49109;SDS011;34921;52.320;16.142;2023-01-16T11:38:59;9.07;;;3.30;;
49109;SDS011;34921;52.320;16.142;2023-01-16T11:41:34;11.22;;;4.70;;
49109;SDS011;34921;52.320;16.142;2023-01-16T11:44:08;10.13;;;4.03;;
49109;SDS011;34921;52.320;16.142;2023-01-16T11:46:58;10.85;;;3.12;;
49109;SDS011;34921;52.320;16.142;2023-01-16T11:49:28;8.63;;;3.47;;
49109;SDS011;34921;52.320;16.142;2023-01-16T11:52:00;8.10;;;3.50;;
49109;SDS011;34921;52.320;16.142;2023-01-16T12:08:37;10.05;;;4.75;;
49109;SDS011;34921;52.320;16.142;2023-01-16T12:11:05;12.58;;;7.40;;
49109;SDS011;34921;52.320;16.142;2023-01-16T12:18:59;90.77;;;36.33;;
49109;SDS011;34921;52.320;16.142;2023-01-16T12:26:34;8.73;;;3.98;;
49109;SDS011;34921;52.320;16.142;2023-01-16T12:36:43;8.93;;;3.75;;
49109;SDS011;34921;52.320;16.142;2023-01-16T12:39:26;101.92;;;48.13;;
49109;SDS011;34921;52.320;16.142;2023-01-16T12:44:51;14.23;;;6.28;;
49109;SDS011;34921;52.320;16.142;2023-01-16T13:00:03;12.43;;;5.08;;
49109;SDS011;34921;52.320;16.142;2023-01-16T13:05:14;10.32;;;5.08;;
49109;SDS011;34921;52.320;16.142;2023-01-16T13:08:05;36.23;;;18.52;;
49109;SDS011;34921;52.320;16.142;2023-01-16T13:10:37;18.30;;;9.48;;
49109;SDS011;34921;52.320;16.142;2023-01-16T13:13:26;22.13;;;9.48;;
49109;SDS011;34921;52.320;16.142;2023-01-16T13:15:59;26.85;;;9.90;;
49109;SDS011;34921;52.320;16.142;2023-01-16T13:18:52;14.35;;;6.62;;
49109;SDS011;34921;52.320;16.142;2023-01-16T13:21:19;13.13;;;5.60;;
49109;SDS011;34921;52.320;16.142;2023-01-16T13:23:52;11.95;;;5.87;;
49109;SDS011;34921;52.320;16.142;2023-01-16T13:26:22;12.70;;;6.15;;
49109;SDS011;34921;52.320;16.142;2023-01-16T13:29:01;15.95;;;7.78;;
49109;SDS011;34921;52.320;16.142;2023-01-16T13:31:45;13.15;;;6.72;;
49109;SDS011;34921;52.320;16.142;2023-01-16T13:34:20;13.60;;;6.28;;
49109;SDS011;34921;52.320;16.142;2023-01-16T13:36:58;13.25;;;6.15;;
49109;SDS011;34921;52.320;16.142;2023-01-16T13:42:00;20.20;;;11.28;;
49109;SDS011;34921;52.320;16.142;2023-01-16T13:44:30;14.05;;;7.20;;
49109;SDS011;34921;52.320;16.142;2023-01-16T13:47:19;17.27;;;8.50;;
49109;SDS011;34921;52.320;16.142;2023-01-16T13:49:52;18.73;;;9.95;;
49109;SDS011;34921;52.320;16.142;2023-01-16T13:52:26;16.60;;;8.95;;
49109;SDS011;34921;52.320;16.142;2023-01-16T13:54:56;27.27;;;14.33;;
49109;SDS011;34921;52.320;16.142;2023-01-16T13:57:25;22.73;;;12.63;;
49109;SDS011;34921;52.320;16.142;2023-01-16T14:00:02;20.60;;;10.30;;
49109;SDS011;34921;52.320;16.142;2023-01-16T14:10:41;16.82;;;9.18;;
49109;SDS011;34921;52.320;16.142;2023-01-16T14:18:35;17.23;;;8.88;;
49109;SDS011;34921;52.320;16.142;2023-01-16T14:21:04;20.77;;;9.75;;
49109;SDS011;34921;52.320;16.142;2023-01-16T14:23:34;22.55;;;11.12;;
49109;SDS011;34921;52.320;16.142;2023-01-16T14:26:30;23.47;;;11.75;;
49109;SDS011;34921;52.320;16.142;2023-01-16T14:29:00;38.40;;;22.05;;
49109;SDS011;34921;52.320;16.142;2023-01-16T14:31:42;19.23;;;10.75;;
49109;SDS011;34921;52.320;16.142;2023-01-16T14:34:16;16.93;;;8.00;;
49109;SDS011;34921;52.320;16.142;2023-01-16T14:36:45;15.43;;;7.58;;
49109;SDS011;34921;52.320;16.142;2023-01-16T14:39:36;52.70;;;29.27;;
49109;SDS011;34921;52.320;16.142;2023-01-16T14:54:23;46.33;;;24.98;;
49109;SDS011;34921;52.320;16.142;2023-01-16T14:57:17;46.03;;;26.43;;
49109;SDS011;34921;52.320;16.142;2023-01-16T15:00:19;64.47;;;34.85;;
49109;SDS011;34921;52.320;16.142;2023-01-16T15:03:04;47.45;;;25.25;;
49109;SDS011;34921;52.320;16.142;2023-01-16T15:08:36;58.08;;;27.55;;
49109;SDS011;34921;52.320;16.142;2023-01-16T15:11:07;53.35;;;25.32;;
49109;SDS011;34921;52.320;16.142;2023-01-16T15:14:08;42.30;;;20.62;;
49109;SDS011;34921;52.320;16.142;2023-01-16T15:17:17;42.58;;;20.68;;
49109;SDS011;34921;52.320;16.142;2023-01-16T15:26:05;81.60;;;35.70;;
49109;SDS011;34921;52.320;16.142;2023-01-16T15:33:58;70.65;;;31.00;;
49109;SDS011;34921;52.320;16.142;2023-01-16T15:36:31;40.30;;;21.52;;
49109;SDS011;34921;52.320;16.142;2023-01-16T15:39:14;58.65;;;27.70;;
49109;SDS011;34921;52.320;16.142;2023-01-16T15:41:46;50.52;;;23.92;;
49109;SDS011;34921;52.320;16.142;2023-01-16T15:44:33;44.00;;;22.37;;
49109;SDS011;34921;52.320;16.142;2023-01-16T15:52:57;35.65;;;22.45;;
49109;SDS011;34921;52.320;16.142;2023-01-16T15:55:27;41.08;;;22.90;;
49109;SDS011;34921;52.320;16.142;2023-01-16T15:57:57;36.53;;;20.40;;
49109;SDS011;34921;52.320;16.142;2023-01-16T16:03:13;36.48;;;19.73;;
49109;SDS011;34921;52.320;16.142;2023-01-16T16:05:43;34.78;;;18.15;;
49109;SDS011;34921;52.320;16.142;2023-01-16T16:08:14;37.13;;;19.62;;
49109;SDS011;34921;52.320;16.142;2023-01-16T16:10:42;33.67;;;17.23;;
49109;SDS011;34921;52.320;16.142;2023-01-16T16:13:30;31.75;;;16.77;;
49109;SDS011;34921;52.320;16.142;2023-01-16T16:15:59;31.40;;;17.32;;
49109;SDS011;34921;52.320;16.142;2023-01-16T16:18:53;36.50;;;17.52;;
49109;SDS011;34921;52.320;16.142;2023-01-16T16:21:22;32.70;;;17.35;;
49109;SDS011;34921;52.320;16.142;2023-01-16T16:23:58;37.10;;;19.15;;
49109;SDS011;34921;52.320;16.142;2023-01-16T16:26:26;40.92;;;19.87;;
49109;SDS011;34921;52.320;16.142;2023-01-16T16:28:54;36.55;;;18.65;;
49109;SDS011;34921;52.320;16.142;2023-01-16T16:31:28;54.25;;;25.50;;
49109;SDS011;34921;52.320;16.142;2023-01-16T16:34:06;44.83;;;20.67;;
49109;SDS011;34921;52.320;16.142;2023-01-16T16:36:44;37.65;;;18.20;;
49109;SDS011;34921;52.320;16.142;2023-01-16T16:41:52;38.97;;;18.77;;
49109;SDS011;34921;52.320;16.142;2023-01-16T16:44:45;40.88;;;19.20;;
49109;SDS011;34921;52.320;16.142;2023-01-16T16:47:24;38.78;;;19.55;;
49109;SDS011;34921;52.320;16.142;2023-01-16T16:49:52;39.20;;;19.07;;
49109;SDS011;34921;52.320;16.142;2023-01-16T16:54:52;73.52;;;42.50;;
49109;SDS011;34921;52.320;16.142;2023-01-16T16:57:20;48.42;;;26.62;;
49109;SDS011;34921;52.320;16.142;2023-01-16T16:59:48;43.75;;;21.40;;
49109;SDS011;34921;52.320;16.142;2023-01-16T17:02:16;53.25;;;26.85;;
49109;SDS011;34921;52.320;16.142;2023-01-16T17:04:44;63.05;;;35.15;;
49109;SDS011;34921;52.320;16.142;2023-01-16T17:07:12;58.40;;;32.70;;
49109;SDS011;34921;52.320;16.142;2023-01-16T17:09:40;44.67;;;23.42;;
49109;SDS011;34921;52.320;16.142;2023-01-16T17:12:15;45.15;;;22.22;;
49109;SDS011;34921;52.320;16.142;2023-01-16T17:14:44;48.30;;;24.00;;
49109;SDS011;34921;52.320;16.142;2023-01-16T17:17:13;60.05;;;31.27;;
49109;SDS011;34921;52.320;16.142;2023-01-16T17:19:42;43.33;;;21.97;;
49109;SDS011;34921;52.320;16.142;2023-01-16T17:22:10;48.13;;;21.93;;
49109;SDS011;34921;52.320;16.142;2023-01-16T17:24:38;52.43;;;24.12;;
49109;SDS011;34921;52.320;16.142;2023-01-16T17:27:06;55.45;;;25.92;;
49109;SDS011;34921;52.320;16.142;2023-01-16T17:32:27;64.90;;;28.33;;
49109;SDS011;34921;52.320;16.142;2023-01-16T17:34:57;55.03;;;25.75;;
49109;SDS011;34921;52.320;16.142;2023-01-16T17:37:25;51.75;;;27.35;;
49109;SDS011;34921;52.320;16.142;2023-01-16T17:39:53;54.57;;;26.43;;
49109;SDS011;34921;52.320;16.142;2023-01-16T17:42:21;57.13;;;24.92;;
49109;SDS011;34921;52.320;16.142;2023-01-16T17:45:14;44.45;;;20.08;;
49109;SDS011;34921;52.320;16.142;2023-01-16T17:48:04;44.20;;;19.98;;